createdAt,value
2019-02-16T00:01:41.193Z,3.70
2019-02-16T00:04:10.889Z,2.92
2019-02-16T00:06:45.046Z,3.33
2019-02-16T00:09:15.141Z,3.87
2019-02-16T00:11:47.242Z,2.70
2019-02-16T00:14:17.058Z,3.35
2019-02-16T00:16:50.029Z,3.50
2019-02-16T00:19:22.783Z,3.70
2019-02-16T00:21:53.607Z,5.05
2019-02-16T00:24:23.568Z,4.45
2019-02-16T00:26:56.182Z,4.95
2019-02-16T00:29:26.009Z,4.90
2019-02-16T00:31:55.716Z,4.20
2019-02-16T00:34:25.666Z,4.78
2019-02-16T00:36:55.556Z,3.95
2019-02-16T00:39:26.192Z,4.30
2019-02-16T00:41:56.143Z,4.05
2019-02-16T00:44:30.131Z,4.33
2019-02-16T00:47:01.188Z,4.70
2019-02-16T00:49:32.826Z,3.62
2019-02-16T00:52:02.508Z,4.33
2019-02-16T00:54:32.456Z,3.25
2019-02-16T00:57:03.253Z,4.12
2019-02-16T00:59:33.239Z,5.00
2019-02-16T01:02:03.085Z,3.72
2019-02-16T01:04:33.705Z,4.33
2019-02-16T01:07:03.398Z,3.25
2019-02-16T01:09:33.121Z,4.00
2019-02-16T01:12:02.809Z,4.62
2019-02-16T01:14:32.725Z,5.62
2019-02-16T01:17:08.315Z,5.80
2019-02-16T01:19:38.025Z,5.37
2019-02-16T01:22:07.973Z,5.67
2019-02-16T01:24:49.163Z,5.05
2019-02-16T01:27:20.431Z,4.75
2019-02-16T01:29:50.297Z,4.08
2019-02-16T01:32:20.246Z,5.00
2019-02-16T01:34:50.375Z,4.87
2019-02-16T01:37:20.475Z,6.40
2019-02-16T01:39:59.786Z,4.58
2019-02-16T01:42:32.779Z,6.35
2019-02-16T01:45:02.879Z,5.10
2019-02-16T01:47:32.987Z,5.53
2019-02-16T01:50:03.220Z,5.05
2019-02-16T01:52:37.646Z,5.67
2019-02-16T01:55:09.089Z,5.87
2019-02-16T01:57:39.049Z,5.75
2019-02-16T02:00:10.342Z,5.65
2019-02-16T02:02:40.436Z,6.22
2019-02-16T02:05:14.700Z,5.70
2019-02-16T02:07:44.526Z,5.83
2019-02-16T02:10:15.515Z,6.55
2019-02-16T02:12:46.357Z,6.58
2019-02-16T02:15:16.050Z,7.17
2019-02-16T02:17:45.741Z,6.42
2019-02-16T02:20:15.509Z,6.53
2019-02-16T02:22:45.197Z,5.65
2019-02-16T02:25:14.917Z,6.30
2019-02-16T02:27:44.887Z,6.45
2019-02-16T02:30:14.716Z,5.33
2019-02-16T02:32:49.901Z,5.95
2019-02-16T02:35:20.057Z,5.55
2019-02-16T02:37:50.820Z,6.83
2019-02-16T02:40:20.852Z,6.75
2019-02-16T02:42:50.950Z,5.45
2019-02-16T02:45:21.080Z,5.05
2019-02-16T02:47:53.101Z,6.97
2019-02-16T02:50:23.221Z,7.00
2019-02-16T02:52:53.363Z,6.60
2019-02-16T02:55:26.534Z,6.90
2019-02-16T02:57:56.634Z,7.30
2019-02-16T03:00:26.752Z,7.50
2019-02-16T03:02:57.767Z,7.87
2019-02-16T03:05:28.557Z,6.22
2019-02-16T03:07:58.528Z,6.62
2019-02-16T03:10:28.581Z,6.50
2019-02-16T03:13:00.489Z,5.90
2019-02-16T03:15:36.102Z,6.42
2019-02-16T03:18:06.754Z,5.47
2019-02-16T03:20:36.725Z,5.87
2019-02-16T03:23:14.717Z,5.58
2019-02-16T03:25:49.997Z,6.60
2019-02-16T03:28:44.601Z,6.25
2019-02-16T03:31:47.965Z,5.03
2019-02-16T03:34:39.196Z,5.83
2019-02-16T03:37:46.030Z,6.50
2019-02-16T03:40:15.847Z,5.00
2019-02-16T03:42:45.817Z,5.37
2019-02-16T03:45:15.642Z,5.72
2019-02-16T03:47:45.321Z,6.05
2019-02-16T03:50:15.021Z,5.90
2019-02-16T03:52:44.707Z,5.85
2019-02-16T03:55:16.162Z,5.33
2019-02-16T03:57:46.254Z,5.75
2019-02-16T04:00:16.081Z,6.78
2019-02-16T04:02:46.027Z,5.17
2019-02-16T04:05:15.858Z,5.97
2019-02-16T04:07:45.554Z,5.80
2019-02-16T04:10:15.519Z,7.08
2019-02-16T04:12:46.313Z,6.37
2019-02-16T04:15:16.033Z,6.35
2019-02-16T04:17:47.218Z,6.00
2019-02-16T04:20:17.037Z,6.00
2019-02-16T04:22:48.539Z,6.17
2019-02-16T04:25:20.277Z,7.30
2019-02-16T04:27:56.035Z,6.60
2019-02-16T04:30:25.738Z,5.78
2019-02-16T04:32:55.691Z,6.35
2019-02-16T04:35:25.792Z,6.37
2019-02-16T04:37:59.910Z,6.58
2019-02-16T04:40:34.040Z,6.50
2019-02-16T04:43:07.809Z,7.97
2019-02-16T04:45:37.509Z,6.80
2019-02-16T04:48:07.468Z,6.00
2019-02-16T04:50:37.567Z,6.28
2019-02-16T04:53:10.495Z,6.65
2019-02-16T04:55:41.165Z,6.28
2019-02-16T04:58:21.842Z,6.30
2019-02-16T05:00:51.546Z,5.97
2019-02-16T05:03:21.491Z,8.03
2019-02-16T05:05:53.993Z,6.53
2019-02-16T05:08:26.366Z,5.72
2019-02-16T05:10:57.287Z,6.28
2019-02-16T05:13:27.398Z,6.75
2019-02-16T05:15:57.221Z,7.08
2019-02-16T05:18:27.180Z,7.08
2019-02-16T05:20:58.009Z,7.78
2019-02-16T05:23:27.707Z,7.58
2019-02-16T05:25:59.646Z,8.45
2019-02-16T05:28:29.745Z,9.03
2019-02-16T05:30:59.574Z,7.65
2019-02-16T05:33:35.413Z,8.13
2019-02-16T05:36:05.510Z,7.75
2019-02-16T05:38:42.513Z,6.83
2019-02-16T05:41:18.562Z,6.15
2019-02-16T05:43:48.680Z,6.65
2019-02-16T05:46:18.773Z,6.75
2019-02-16T05:48:48.871Z,6.95
2019-02-16T05:51:18.706Z,7.78
2019-02-16T05:53:48.672Z,7.00
2019-02-16T05:56:18.511Z,7.17
2019-02-16T05:58:49.400Z,7.00
2019-02-16T06:01:19.894Z,6.42
2019-02-16T06:03:59.007Z,6.95
2019-02-16T06:06:29.102Z,6.28
2019-02-16T06:08:59.219Z,5.78
2019-02-16T06:11:36.032Z,6.80
2019-02-16T06:14:06.004Z,6.35
2019-02-16T06:16:36.087Z,6.45
2019-02-16T06:19:08.155Z,6.50
2019-02-16T06:21:38.286Z,7.47
2019-02-16T06:24:08.403Z,7.20
2019-02-16T06:26:39.201Z,6.50
2019-02-16T06:29:08.926Z,8.13
2019-02-16T06:31:39.208Z,7.50
2019-02-16T06:34:14.269Z,8.28
2019-02-16T06:36:44.230Z,6.80
2019-02-16T06:39:14.333Z,6.83
2019-02-16T06:41:44.446Z,6.65
2019-02-16T06:44:15.500Z,7.17
2019-02-16T06:46:45.612Z,6.42
2019-02-16T06:49:15.449Z,7.53
2019-02-16T06:51:53.379Z,6.95
2019-02-16T06:54:24.209Z,7.05
2019-02-16T06:57:01.270Z,7.85
2019-02-16T06:59:31.231Z,8.43
2019-02-16T07:02:01.064Z,8.93
2019-02-16T07:04:31.670Z,9.03
2019-02-16T07:07:03.570Z,8.30
2019-02-16T07:09:36.885Z,7.67
2019-02-16T07:12:06.980Z,7.33
2019-02-16T07:14:37.097Z,7.60
2019-02-16T07:17:12.022Z,6.92
2019-02-16T07:19:44.985Z,9.68
2019-02-16T07:22:14.838Z,8.58
2019-02-16T07:24:46.794Z,8.45
2019-02-16T07:27:17.570Z,8.80
2019-02-16T07:29:48.226Z,7.83
2019-02-16T07:32:17.922Z,8.68
2019-02-16T07:34:47.896Z,8.50
2019-02-16T07:37:17.742Z,9.50
2019-02-16T07:39:47.714Z,11.05
2019-02-16T07:42:17.814Z,7.92
2019-02-16T07:45:01.264Z,8.30
2019-02-16T07:47:32.721Z,9.50
2019-02-16T07:50:04.322Z,9.95
2019-02-16T07:52:52.686Z,9.98
2019-02-16T07:55:36.066Z,8.85
2019-02-16T07:58:10.341Z,8.13
2019-02-16T08:00:53.990Z,8.40
2019-02-16T08:03:28.560Z,8.33
2019-02-16T08:06:03.232Z,9.13
2019-02-16T08:08:51.740Z,8.10
2019-02-16T08:11:27.838Z,8.38
2019-02-16T08:14:15.474Z,8.83
2019-02-16T08:16:51.022Z,7.60
2019-02-16T08:19:23.407Z,7.67
2019-02-16T08:22:03.742Z,7.58
2019-02-16T08:24:41.167Z,6.75
2019-02-16T08:27:18.366Z,5.92
2019-02-16T08:30:08.015Z,7.30
2019-02-16T08:32:51.633Z,6.95
2019-02-16T08:35:31.919Z,6.83
2019-02-16T08:38:09.282Z,6.40
2019-02-16T08:40:41.866Z,8.00
2019-02-16T08:43:22.877Z,8.63
2019-02-16T08:46:09.318Z,8.70
2019-02-16T08:48:47.539Z,7.53
2019-02-16T08:51:39.766Z,8.20
2019-02-16T08:54:17.070Z,8.40
2019-02-16T08:57:01.051Z,7.20
2019-02-16T08:59:32.532Z,7.80
2019-02-16T09:02:19.835Z,7.35
2019-02-16T09:05:00.927Z,9.40
2019-02-16T09:07:59.155Z,7.90
2019-02-16T09:10:46.647Z,5.80
2019-02-16T09:13:20.591Z,6.03
2019-02-16T09:15:51.966Z,5.97
2019-02-16T09:18:35.722Z,7.07
2019-02-16T09:21:15.214Z,7.67
2019-02-16T09:23:59.230Z,7.70
2019-02-16T09:26:38.202Z,7.80
2019-02-16T09:29:29.548Z,7.10
2019-02-16T09:32:03.597Z,8.00
2019-02-16T09:34:35.201Z,7.93
2019-02-16T09:37:06.686Z,7.30
2019-02-16T09:39:40.690Z,7.50
2019-02-16T09:42:21.785Z,7.47
2019-02-16T09:44:55.858Z,8.80
2019-02-16T09:47:27.262Z,9.07
2019-02-16T09:50:02.195Z,8.47
2019-02-16T09:52:49.935Z,9.33
2019-02-16T09:55:24.227Z,10.53
2019-02-16T09:57:56.546Z,11.47
2019-02-16T10:00:36.646Z,11.03
2019-02-16T10:03:19.990Z,11.57
2019-02-16T10:05:57.183Z,13.00
2019-02-16T10:08:34.042Z,12.80
2019-02-16T10:11:09.018Z,13.57
2019-02-16T10:13:46.502Z,12.37
2019-02-16T10:19:33.075Z,15.13
2019-02-16T10:22:06.887Z,12.37
2019-02-16T10:24:54.401Z,14.47
2019-02-16T10:27:25.734Z,13.30
2019-02-16T10:30:08.704Z,14.27
2019-02-16T10:32:40.195Z,14.97
2019-02-16T10:35:22.003Z,14.97
2019-02-16T10:38:05.679Z,14.70
2019-02-16T10:40:53.270Z,15.50
2019-02-16T10:43:30.099Z,16.57
2019-02-16T10:46:17.932Z,15.60
2019-02-16T10:48:55.711Z,15.43
2019-02-16T10:51:27.492Z,15.30
2019-02-16T10:54:06.292Z,15.77
2019-02-16T10:56:46.991Z,13.47
2019-02-16T10:59:20.387Z,14.83
2019-02-16T11:01:51.723Z,14.77
2019-02-16T11:04:23.067Z,14.23
2019-02-16T11:06:55.608Z,16.03
2019-02-16T11:09:43.467Z,15.10
2019-02-16T11:12:17.675Z,11.83
2019-02-16T11:14:58.018Z,12.37
2019-02-16T11:17:38.327Z,11.13
2019-02-16T11:20:10.368Z,10.70
2019-02-16T11:22:58.163Z,11.00
2019-02-16T11:25:45.671Z,11.60
2019-02-16T11:28:33.119Z,11.10
2019-02-16T11:31:22.811Z,10.87
2019-02-16T11:33:59.903Z,11.03
2019-02-16T11:36:31.547Z,9.97
2019-02-16T11:39:15.219Z,9.23
2019-02-16T11:41:46.707Z,8.73
2019-02-16T11:44:21.100Z,9.37
2019-02-16T11:46:56.432Z,7.90
2019-02-16T11:49:27.983Z,7.20
2019-02-16T11:51:59.582Z,7.53
2019-02-16T11:54:31.360Z,7.67
2019-02-16T11:57:15.443Z,8.23
2019-02-16T11:59:53.776Z,6.50
2019-02-16T12:02:25.385Z,7.47
2019-02-16T12:05:09.007Z,7.37
2019-02-16T12:07:43.124Z,7.13
2019-02-16T12:10:14.467Z,7.70
2019-02-16T12:12:47.564Z,7.77
2019-02-16T12:15:47.077Z,7.67
2019-02-16T12:18:34.580Z,6.40
2019-02-16T12:21:05.911Z,7.33
2019-02-16T12:23:37.240Z,8.03
2019-02-16T12:26:23.383Z,7.77
2019-02-16T12:29:00.609Z,7.93
2019-02-16T12:31:31.975Z,8.17
2019-02-16T12:34:03.315Z,8.20
2019-02-16T12:36:50.701Z,7.83
2019-02-16T12:39:25.131Z,8.40
2019-02-16T12:42:05.215Z,8.43
2019-02-16T12:44:48.615Z,10.00
2019-02-16T12:47:26.024Z,8.80
2019-02-16T12:50:00.292Z,8.57
2019-02-16T12:52:38.627Z,9.53
2019-02-16T12:55:18.834Z,8.70
2019-02-16T12:57:50.176Z,8.77
2019-02-16T13:00:38.700Z,9.60
2019-02-16T13:03:26.303Z,9.30
2019-02-16T13:06:00.903Z,9.43
2019-02-16T13:08:35.208Z,9.70
2019-02-16T13:11:15.567Z,10.33
2019-02-16T13:13:49.738Z,10.07
2019-02-16T13:16:29.947Z,10.77
2019-02-16T13:19:04.316Z,10.10
2019-02-16T13:21:35.909Z,10.00
2019-02-16T13:24:10.107Z,9.97
2019-02-16T13:26:48.187Z,10.60
2019-02-16T13:29:32.240Z,10.87
2019-02-16T13:32:09.789Z,10.90
2019-02-16T13:34:46.935Z,12.40
2019-02-16T13:37:18.358Z,11.57
2019-02-16T13:39:55.592Z,11.77
2019-02-16T13:42:26.924Z,11.60
2019-02-16T13:44:59.523Z,12.07
2019-02-16T13:47:38.969Z,12.50
2019-02-16T13:50:13.544Z,12.77
2019-02-16T13:52:58.831Z,12.90
2019-02-16T13:55:36.274Z,12.97
2019-02-16T13:58:24.483Z,12.23
2019-02-16T14:00:58.488Z,13.43
2019-02-16T14:03:48.245Z,12.70
2019-02-16T14:06:25.952Z,12.00
2019-02-16T14:08:57.467Z,12.23
2019-02-16T14:11:38.445Z,11.40
2019-02-16T14:14:12.764Z,13.83
2019-02-16T14:19:40.951Z,14.10
2019-02-16T14:22:11.591Z,13.73
2019-02-16T14:24:45.667Z,13.57
2019-02-16T14:27:15.911Z,11.77
2019-02-16T14:29:51.091Z,13.70
2019-02-16T14:32:27.073Z,12.10
2019-02-16T14:35:02.967Z,13.05
2019-02-16T14:37:37.303Z,11.73
2019-02-16T14:40:08.764Z,12.23
2019-02-16T14:42:39.816Z,11.90
2019-02-16T14:45:13.759Z,12.30
2019-02-16T14:47:43.599Z,14.93
2019-02-16T14:50:13.319Z,12.03
2019-02-16T14:52:43.285Z,13.47
2019-02-16T14:55:15.480Z,12.47
2019-02-16T14:57:45.183Z,12.00
2019-02-16T15:00:14.952Z,13.03
2019-02-16T15:02:44.675Z,11.90
2019-02-16T15:05:15.349Z,14.57
2019-02-16T15:07:45.987Z,13.30
2019-02-16T15:10:15.707Z,13.77
2019-02-16T15:12:45.411Z,13.87
2019-02-16T15:15:15.275Z,13.40
2019-02-16T15:17:48.247Z,13.53
2019-02-16T15:20:19.315Z,13.37
2019-02-16T15:22:49.187Z,13.63
2019-02-16T15:25:18.879Z,14.37
2019-02-16T15:27:48.579Z,14.73
2019-02-16T15:30:20.055Z,14.27
2019-02-16T15:32:55.491Z,13.20
2019-02-16T15:35:25.191Z,14.70
2019-02-16T15:37:54.891Z,15.37
2019-02-16T15:40:24.868Z,13.30
2019-02-16T15:42:54.711Z,14.20
2019-02-16T15:45:24.428Z,13.00
2019-02-16T15:47:54.402Z,14.68
2019-02-16T15:50:24.501Z,13.70
2019-02-16T15:52:55.505Z,15.03
2019-02-16T15:55:28.380Z,14.80
2019-02-16T15:58:06.924Z,16.00
2019-02-16T16:00:39.992Z,14.73
2019-02-16T16:03:10.816Z,15.30
2019-02-16T16:05:40.797Z,17.13
2019-02-16T16:08:15.219Z,16.15
2019-02-16T16:10:55.772Z,15.70
2019-02-16T16:13:29.939Z,15.03
2019-02-16T16:16:04.211Z,16.53
2019-02-16T16:18:44.655Z,17.43
2019-02-16T16:21:16.020Z,17.13
2019-02-16T16:24:02.663Z,16.73
2019-02-16T16:26:36.776Z,17.27
2019-02-16T16:29:15.239Z,16.43
2019-02-16T16:32:04.522Z,15.13
2019-02-16T16:34:36.267Z,16.10
2019-02-16T16:37:17.856Z,15.33
2019-02-16T16:39:57.035Z,16.20
2019-02-16T16:42:37.662Z,14.47
2019-02-16T16:45:10.261Z,13.63
2019-02-16T16:47:51.119Z,14.10
2019-02-16T16:50:44.413Z,14.63
2019-02-16T16:53:16.127Z,14.87
2019-02-16T16:55:53.292Z,14.73
2019-02-16T16:58:24.924Z,14.03
2019-02-16T17:01:00.093Z,13.90
2019-02-16T17:03:40.554Z,16.30
2019-02-16T17:06:15.048Z,15.83
2019-02-16T17:08:46.616Z,15.80
2019-02-16T17:11:20.626Z,17.00
2019-02-16T17:13:58.845Z,19.40
2019-02-16T17:16:39.474Z,19.50
2019-02-16T17:19:11.084Z,18.60
2019-02-16T17:21:55.107Z,18.20
2019-02-16T17:24:32.481Z,17.33
2019-02-16T17:27:13.744Z,16.83
2019-02-16T17:29:47.817Z,17.60
2019-02-16T17:32:40.016Z,17.40
2019-02-16T17:35:25.436Z,16.80
2019-02-16T17:37:56.926Z,17.13
2019-02-16T17:40:31.171Z,16.82
2019-02-16T17:43:05.168Z,24.30
2019-02-16T17:45:52.972Z,23.40
2019-02-16T17:48:27.016Z,20.97
2019-02-16T17:50:58.352Z,19.10
2019-02-16T17:53:36.476Z,20.50
2019-02-16T17:56:10.908Z,19.73
2019-02-16T17:58:48.152Z,17.90
2019-02-16T18:01:25.744Z,17.55
2019-02-16T18:04:06.046Z,19.12
2019-02-16T18:06:43.069Z,16.00
2019-02-16T18:09:31.576Z,18.30
2019-02-16T18:12:15.806Z,17.95
2019-02-16T18:14:51.263Z,16.50
2019-02-16T18:17:28.690Z,17.55
2019-02-16T18:20:03.152Z,17.30
2019-02-16T18:22:42.590Z,17.70
2019-02-16T18:25:18.664Z,16.95
2019-02-16T18:28:00.077Z,15.35
2019-02-16T18:30:31.814Z,15.00
2019-02-16T18:33:12.024Z,15.50
2019-02-16T18:35:49.802Z,17.92
2019-02-16T18:38:27.198Z,18.62
2019-02-16T18:40:58.979Z,15.60
2019-02-16T18:43:36.365Z,18.10
2019-02-16T18:46:09.034Z,15.78
2019-02-16T18:48:54.282Z,17.80
2019-02-16T18:51:43.650Z,15.75
2019-02-16T18:54:24.299Z,15.95
2019-02-16T18:57:06.089Z,15.85
2019-02-16T18:59:29.662Z,16.10
2019-02-16T19:02:07.251Z,16.57
2019-02-16T19:04:48.039Z,16.42
2019-02-16T19:07:25.180Z,19.60
2019-02-16T19:10:08.397Z,18.00
2019-02-16T19:13:01.829Z,17.23
2019-02-16T19:15:39.669Z,15.72
2019-02-16T19:18:13.816Z,16.40
2019-02-16T19:21:01.522Z,16.57
2019-02-16T19:23:45.291Z,16.55
2019-02-16T19:26:20.081Z,16.60
2019-02-16T19:28:54.711Z,16.82
2019-02-16T19:31:29.203Z,18.48
2019-02-16T19:34:15.685Z,16.17
2019-02-16T19:36:51.922Z,16.27
2019-02-16T19:39:23.269Z,17.52
2019-02-16T19:42:12.227Z,17.87
2019-02-16T19:45:00.357Z,15.72
2019-02-16T19:47:34.813Z,18.40
2019-02-16T19:50:17.830Z,17.35
2019-02-16T19:52:52.298Z,16.12
2019-02-16T19:55:26.990Z,17.32
2019-02-16T19:58:02.844Z,16.27
2019-02-16T20:00:40.025Z,17.12
2019-02-16T20:03:30.841Z,17.55
2019-02-16T20:06:11.073Z,16.37
2019-02-16T20:08:59.166Z,20.27
2019-02-16T20:11:46.771Z,16.70
2019-02-16T20:14:36.626Z,16.48
2019-02-16T20:17:26.265Z,16.73
2019-02-16T20:20:15.877Z,17.77
2019-02-16T20:23:03.078Z,15.38
2019-02-16T20:25:50.741Z,16.30
2019-02-16T20:28:38.649Z,16.60
2019-02-16T20:31:12.826Z,17.60
2019-02-16T20:33:54.181Z,18.67
2019-02-16T20:36:42.057Z,17.27
2019-02-16T20:39:16.476Z,17.55
2019-02-16T20:41:53.713Z,16.57
2019-02-16T20:44:27.759Z,18.70
2019-02-16T20:47:02.083Z,16.60
2019-02-16T20:49:49.645Z,17.00
2019-02-16T20:52:39.405Z,17.32
2019-02-16T20:55:12.753Z,17.80
2019-02-16T20:57:49.065Z,16.65
2019-02-16T21:00:20.421Z,17.70
2019-02-16T21:03:08.094Z,17.57
2019-02-16T21:05:39.833Z,18.30
2019-02-16T21:08:29.681Z,18.50
2019-02-16T21:11:19.237Z,16.60
2019-02-16T21:14:07.129Z,16.60
2019-02-16T21:16:47.169Z,15.75
2019-02-16T21:19:36.074Z,17.40
2019-02-16T21:22:14.798Z,16.40
2019-02-16T21:24:48.510Z,16.48
2019-02-16T21:27:28.686Z,18.25
2019-02-16T21:30:03.975Z,17.50
2019-02-16T21:32:51.849Z,16.70
2019-02-16T21:35:32.308Z,16.70
2019-02-16T21:38:05.128Z,17.37
2019-02-16T21:40:36.477Z,15.60
2019-02-16T21:43:10.469Z,18.73
2019-02-16T21:46:00.845Z,16.15
2019-02-16T21:48:48.425Z,17.07
2019-02-16T21:51:32.013Z,17.52
2019-02-16T21:54:06.725Z,18.67
2019-02-16T21:56:49.865Z,18.45
2019-02-16T21:59:23.662Z,17.65
2019-02-16T22:01:57.941Z,18.37
2019-02-16T22:04:34.978Z,18.00
2019-02-16T22:07:18.333Z,20.35
2019-02-16T22:09:52.720Z,17.70
2019-02-16T22:12:30.729Z,19.87
2019-02-16T22:15:02.348Z,19.40
2019-02-16T22:17:31.892Z,18.42
2019-02-16T22:20:02.917Z,18.23
2019-02-16T22:22:32.789Z,17.85
2019-02-16T22:25:05.983Z,17.37
2019-02-16T22:27:35.837Z,17.95
2019-02-16T22:30:10.690Z,19.45
2019-02-16T22:32:43.246Z,19.02
2019-02-16T22:35:13.121Z,18.00
2019-02-16T22:37:43.127Z,19.40
2019-02-16T22:40:13.073Z,17.90
2019-02-16T22:42:46.761Z,18.17
2019-02-16T22:45:16.727Z,19.40
2019-02-16T22:47:52.480Z,18.65
2019-02-16T22:50:22.427Z,18.73
2019-02-16T22:52:52.257Z,17.52
2019-02-16T22:55:21.965Z,19.37
2019-02-16T22:57:51.697Z,19.25
2019-02-16T23:00:38.335Z,19.95
2019-02-16T23:03:08.781Z,18.12
2019-02-16T23:05:40.255Z,17.62
2019-02-16T23:08:09.969Z,19.17
2019-02-16T23:10:40.925Z,18.10
2019-02-16T23:13:10.754Z,19.60
2019-02-16T23:15:40.461Z,19.87
2019-02-16T23:18:10.157Z,20.00
2019-02-16T23:20:40.142Z,17.98
2019-02-16T23:23:10.242Z,17.67
2019-02-16T23:25:40.205Z,17.12
2019-02-16T23:28:10.041Z,19.32
2019-02-16T23:30:40.032Z,18.00
2019-02-16T23:33:09.866Z,17.32
2019-02-16T23:35:39.831Z,18.70
2019-02-16T23:38:09.661Z,19.95
2019-02-16T23:40:41.671Z,19.48
2019-02-16T23:43:11.501Z,20.62
2019-02-16T23:45:41.213Z,20.00
2019-02-16T23:48:10.921Z,19.25
2019-02-16T23:50:41.006Z,20.88
2019-02-16T23:53:10.846Z,19.57
2019-02-16T23:55:40.802Z,19.00
2019-02-16T23:58:10.629Z,17.10
